Mocambique, Mozambique
Current Conditions -  °F | °C
As of 6:00 PM on Saturday 22 Nov 2014 (Local Time) from FQNP Reporting Station
Scattered Clouds Scattered Clouds  
Wind Chill: 86°   Ceiling: Unl
Heat Index: 86°   Visibility: 6mi
Dew Point: 59°   Wind: 13mph
Humidity: 40%   Direction: 180°S
Pressure: 29.97"   Gusts: NA
Location:  15.04°S, 40.73°E
Report Text: FQNP 221600Z 18011KT 9999 SCT020 30/15 Q1015
Loading
Personal Weather Stations






























Interactive Weather Map New forecast layout! Learn more

10-Day Weather Forecast

Advertisements
Track Severe Weather on mobile